createdAt,value
2023-03-27T00:01:16.904Z,100835.63
2023-03-27T00:03:43.709Z,100837.53
2023-03-27T00:06:16.334Z,100846.03
2023-03-27T00:08:48.246Z,100850.31
2023-03-27T00:11:15.270Z,100859.78
2023-03-27T00:13:49.172Z,100854.00
2023-03-27T00:16:27.508Z,100854.53
2023-03-27T00:18:55.158Z,100868.59
2023-03-27T00:21:22.534Z,100872.06
2023-03-27T00:23:49.259Z,100871.22
2023-03-27T00:26:16.118Z,100876.44
2023-03-27T00:28:42.549Z,100879.81
2023-03-27T00:31:16.036Z,100886.78
2023-03-27T00:33:42.746Z,100883.50
2023-03-27T00:36:10.238Z,100880.94
2023-03-27T00:38:36.792Z,100897.44
2023-03-27T00:41:03.296Z,100896.84
2023-03-27T00:43:35.057Z,100898.75
2023-03-27T00:46:27.590Z,100903.00
2023-03-27T00:48:56.068Z,100916.13
2023-03-27T00:51:26.526Z,100896.81
2023-03-27T00:53:54.523Z,100920.50
2023-03-27T00:56:21.793Z,100905.47
2023-03-27T00:58:56.920Z,100915.59
2023-03-27T01:01:27.173Z,100922.53
2023-03-27T01:03:54.338Z,100919.44
2023-03-27T01:06:22.295Z,100919.69
2023-03-27T01:08:48.974Z,100931.81
2023-03-27T01:11:15.402Z,100940.50
2023-03-27T01:13:50.723Z,100952.50
2023-03-27T01:16:31.880Z,100949.34
2023-03-27T01:19:13.329Z,100948.03
2023-03-27T01:21:57.992Z,100963.50
2023-03-27T01:25:08.081Z,100961.19
2023-03-27T01:27:49.739Z,100969.72
2023-03-27T01:30:21.187Z,100965.47
2023-03-27T01:33:21.497Z,100975.03
2023-03-27T01:35:53.932Z,100968.25
2023-03-27T01:39:05.230Z,100975.25
2023-03-27T01:41:43.517Z,100973.59
2023-03-27T01:44:16.637Z,100980.69
2023-03-27T01:46:51.220Z,100975.81
2023-03-27T01:49:24.586Z,100979.41
2023-03-27T01:51:57.761Z,100978.63
2023-03-27T01:54:29.533Z,100967.97
2023-03-27T01:57:04.191Z,100996.72
2023-03-27T01:59:36.547Z,100996.19
2023-03-27T02:02:13.136Z,100995.22
2023-03-27T02:05:03.968Z,100998.72
2023-03-27T02:07:34.866Z,101004.03
2023-03-27T02:10:08.235Z,101009.13
2023-03-27T02:12:39.593Z,101013.50
2023-03-27T02:15:22.539Z,101006.84
2023-03-27T02:17:57.405Z,101024.75
2023-03-27T02:20:24.140Z,101021.53
2023-03-27T02:22:50.643Z,101026.50
2023-03-27T02:25:28.038Z,101024.81
2023-03-27T02:28:03.248Z,101031.72
2023-03-27T02:30:42.922Z,101031.09
2023-03-27T02:33:18.251Z,101048.13
2023-03-27T02:35:47.419Z,101053.28
2023-03-27T02:38:41.383Z,101056.97
2023-03-27T02:41:13.795Z,101059.44
2023-03-27T02:44:13.899Z,101063.88
2023-03-27T02:46:45.935Z,101069.84
2023-03-27T02:49:19.988Z,101067.38
2023-03-27T02:51:52.970Z,101067.44
2023-03-27T02:54:25.940Z,101063.28
2023-03-27T02:56:57.767Z,101059.09
2023-03-27T02:59:35.679Z,101072.75
2023-03-27T03:02:14.212Z,101074.53
2023-03-27T03:04:46.693Z,101086.69
2023-03-27T03:07:14.315Z,101068.97
2023-03-27T03:09:41.378Z,101078.53
2023-03-27T03:12:08.587Z,101097.19
2023-03-27T03:14:37.960Z,101097.34
2023-03-27T03:17:04.372Z,101105.97
2023-03-27T03:19:31.034Z,101100.94
2023-03-27T03:21:57.425Z,101107.78
2023-03-27T03:24:24.003Z,101099.38
2023-03-27T03:26:50.675Z,101115.53
2023-03-27T03:29:19.040Z,101115.06
2023-03-27T03:31:45.873Z,101120.81
2023-03-27T03:34:18.347Z,101125.19
2023-03-27T03:36:49.198Z,101132.91
2023-03-27T03:39:17.291Z,101150.06
2023-03-27T03:41:43.689Z,101133.28
2023-03-27T03:44:10.480Z,101135.09
2023-03-27T03:46:37.123Z,101159.78
2023-03-27T03:49:04.939Z,101158.09
2023-03-27T03:51:32.426Z,101151.38
2023-03-27T03:53:58.971Z,101161.63
2023-03-27T03:56:27.752Z,101158.41
2023-03-27T03:58:54.248Z,101159.25
2023-03-27T04:01:20.815Z,101163.50
2023-03-27T04:03:48.632Z,101172.13
2023-03-27T04:06:17.631Z,101166.91
2023-03-27T04:08:47.470Z,101170.44
2023-03-27T04:11:13.916Z,101138.44
2023-03-27T04:13:40.470Z,101145.41
2023-03-27T04:16:08.070Z,101171.59
2023-03-27T04:18:35.375Z,101194.56
2023-03-27T04:21:02.407Z,101189.44
2023-03-27T04:23:31.487Z,101191.28
2023-03-27T04:26:03.327Z,101198.94
2023-03-27T04:28:34.414Z,101202.31
2023-03-27T04:31:06.405Z,101203.97
2023-03-27T04:33:34.418Z,101211.69
2023-03-27T04:36:06.638Z,101213.38
2023-03-27T04:38:36.697Z,101214.28
2023-03-27T04:41:03.755Z,101217.63
2023-03-27T04:43:30.787Z,101230.34
2023-03-27T04:45:57.281Z,101212.31
2023-03-27T04:48:23.751Z,101223.38
2023-03-27T04:50:50.241Z,101225.94
2023-03-27T04:53:20.621Z,101233.50
2023-03-27T04:55:50.980Z,101241.09
2023-03-27T04:58:18.536Z,101227.47
2023-03-27T05:00:50.378Z,101241.81
2023-03-27T05:03:20.624Z,101235.72
2023-03-27T05:05:49.520Z,101237.50
2023-03-27T05:08:16.764Z,101248.47
2023-03-27T05:10:44.603Z,101254.34
2023-03-27T05:13:11.597Z,101248.31
2023-03-27T05:15:39.126Z,101259.44
2023-03-27T05:18:07.659Z,101256.81
2023-03-27T05:20:35.497Z,101273.09
2023-03-27T05:23:02.058Z,101273.97
2023-03-27T05:25:28.958Z,101282.44
2023-03-27T05:27:55.554Z,101284.91
2023-03-27T05:30:23.952Z,101289.25
2023-03-27T05:32:52.571Z,101286.69
2023-03-27T05:35:21.537Z,101291.72
2023-03-27T05:37:49.847Z,101280.63
2023-03-27T05:40:17.668Z,101306.84
2023-03-27T05:42:45.380Z,101299.88
2023-03-27T05:45:13.293Z,101308.31
2023-03-27T05:47:56.654Z,101312.50
2023-03-27T05:50:25.426Z,101313.25
2023-03-27T05:53:03.582Z,101313.97
2023-03-27T05:55:31.936Z,101317.31
2023-03-27T05:57:58.449Z,101306.28
2023-03-27T06:00:26.306Z,101326.44
2023-03-27T06:02:57.732Z,101328.19
2023-03-27T06:05:26.410Z,101332.13
2023-03-27T06:07:52.955Z,101339.59
2023-03-27T06:10:22.487Z,101343.72
2023-03-27T06:12:49.238Z,101342.63
2023-03-27T06:15:16.310Z,101336.41
2023-03-27T06:17:43.809Z,101350.03
2023-03-27T06:20:12.655Z,101354.22
2023-03-27T06:22:46.170Z,101363.44
2023-03-27T06:25:13.447Z,101369.25
2023-03-27T06:27:46.406Z,101373.41
2023-03-27T06:30:17.220Z,101381.00
2023-03-27T06:32:52.071Z,101383.53
2023-03-27T06:35:19.728Z,101373.88
2023-03-27T06:37:50.741Z,101384.81
2023-03-27T06:40:22.850Z,101381.22
2023-03-27T06:42:58.183Z,101387.13
2023-03-27T06:45:28.426Z,101376.75
2023-03-27T06:48:16.032Z,101395.22
2023-03-27T06:50:45.257Z,101389.44
2023-03-27T06:53:25.856Z,101395.66
2023-03-27T06:55:54.254Z,101394.31
2023-03-27T06:58:21.812Z,101391.59
2023-03-27T07:00:50.350Z,101392.69
2023-03-27T07:03:18.973Z,101402.56
2023-03-27T07:05:45.647Z,101396.00
2023-03-27T07:10:50.610Z,101404.25
2023-03-27T07:13:23.142Z,101408.84
2023-03-27T07:15:49.540Z,101421.88
2023-03-27T07:18:16.334Z,101429.78
2023-03-27T07:20:44.757Z,101429.44
2023-03-27T07:23:11.601Z,101440.28
2023-03-27T07:25:38.115Z,101434.09
2023-03-27T07:28:10.062Z,101436.56
2023-03-27T07:30:37.553Z,101442.34
2023-03-27T07:33:07.272Z,101443.31
2023-03-27T07:35:34.009Z,101450.78
2023-03-27T07:38:03.136Z,101452.88
2023-03-27T07:40:39.391Z,101458.94
2023-03-27T07:43:07.271Z,101465.81
2023-03-27T07:45:35.006Z,101460.84
2023-03-27T07:48:09.863Z,101459.38
2023-03-27T07:50:37.748Z,101471.34
2023-03-27T07:53:06.280Z,101461.56
2023-03-27T07:55:33.496Z,101468.06
2023-03-27T07:58:02.994Z,101472.00
2023-03-27T08:00:31.432Z,101463.56
2023-03-27T08:03:11.930Z,101469.09
2023-03-27T08:05:38.601Z,101472.16
2023-03-27T08:08:05.430Z,101462.75
2023-03-27T08:10:32.331Z,101475.50
2023-03-27T08:12:58.875Z,101476.69
2023-03-27T08:15:25.553Z,101476.06
2023-03-27T08:17:54.647Z,101488.31
2023-03-27T08:20:23.127Z,101480.91
2023-03-27T08:22:52.936Z,101490.03
2023-03-27T08:25:22.393Z,101491.22
2023-03-27T08:27:49.462Z,101489.34
2023-03-27T08:30:17.222Z,101487.78
2023-03-27T08:32:44.414Z,101495.75
2023-03-27T08:35:12.112Z,101494.69
2023-03-27T08:37:38.691Z,101504.94
2023-03-27T08:40:12.578Z,101502.06
2023-03-27T08:42:42.593Z,101519.69
2023-03-27T08:45:20.788Z,101509.75
2023-03-27T08:47:54.561Z,101522.81
2023-03-27T08:50:38.466Z,101519.63
2023-03-27T08:53:11.824Z,101516.56
2023-03-27T08:55:43.205Z,101527.00
2023-03-27T08:58:20.049Z,101533.91
2023-03-27T09:01:06.993Z,101533.38
2023-03-27T09:04:08.867Z,101544.53
2023-03-27T09:06:48.161Z,101549.84
2023-03-27T09:09:49.856Z,101553.22
2023-03-27T09:12:41.967Z,101547.41
2023-03-27T09:15:11.177Z,101558.50
2023-03-27T09:17:43.826Z,101552.03
2023-03-27T09:20:23.468Z,101552.69
2023-03-27T09:23:21.733Z,101553.50
2023-03-27T09:25:53.494Z,101562.78
2023-03-27T09:28:39.875Z,101552.41
2023-03-27T09:31:35.887Z,101555.53
2023-03-27T09:34:05.697Z,101548.06
2023-03-27T09:36:32.772Z,101550.97
2023-03-27T09:39:08.147Z,101554.91
2023-03-27T09:41:42.305Z,101549.19
2023-03-27T09:44:14.567Z,101555.34
2023-03-27T09:46:48.914Z,101551.13
2023-03-27T09:49:19.859Z,101557.94
2023-03-27T09:51:51.253Z,101563.06
2023-03-27T09:54:21.012Z,101563.31
2023-03-27T09:56:57.870Z,101564.59
2023-03-27T09:59:29.386Z,101576.16
2023-03-27T10:02:08.095Z,101577.53
2023-03-27T10:04:35.705Z,101574.72
2023-03-27T10:07:07.958Z,101566.44
2023-03-27T10:09:36.898Z,101575.16
2023-03-27T10:12:07.276Z,101574.25
2023-03-27T10:14:38.364Z,101557.59
2023-03-27T10:17:05.956Z,101585.84
2023-03-27T10:19:37.027Z,101568.28
2023-03-27T10:22:16.527Z,101558.69
2023-03-27T10:24:46.621Z,101570.03
2023-03-27T10:27:20.502Z,101586.16
2023-03-27T10:29:46.945Z,101579.94
2023-03-27T10:32:13.871Z,101569.75
2023-03-27T10:35:00.739Z,101574.41
2023-03-27T10:37:30.899Z,101584.03
2023-03-27T10:40:02.208Z,101581.00
2023-03-27T10:42:32.227Z,101579.88
2023-03-27T10:44:59.680Z,101593.72
2023-03-27T10:47:35.342Z,101588.75
2023-03-27T10:50:08.145Z,101592.06
2023-03-27T10:52:37.402Z,101578.03
2023-03-27T10:55:12.729Z,101589.56
2023-03-27T10:57:42.077Z,101582.75
2023-03-27T11:00:21.093Z,101579.75
2023-03-27T11:02:57.586Z,101583.53
2023-03-27T11:05:30.253Z,101582.22
2023-03-27T11:08:05.704Z,101578.22
2023-03-27T11:10:39.568Z,101596.50
2023-03-27T11:13:15.234Z,101599.94
2023-03-27T11:15:48.353Z,101597.94
2023-03-27T11:18:21.100Z,101611.66
2023-03-27T11:20:56.583Z,101615.66
2023-03-27T11:23:40.846Z,101615.72
2023-03-27T11:26:11.097Z,101622.88
2023-03-27T11:29:01.945Z,101621.19
2023-03-27T11:31:40.894Z,101631.81
2023-03-27T11:34:28.818Z,101656.41
2023-03-27T11:37:17.346Z,101663.81
2023-03-27T11:39:53.165Z,101664.94
2023-03-27T11:42:24.237Z,101663.97
2023-03-27T11:44:53.068Z,101679.94
2023-03-27T11:47:34.688Z,101684.81
2023-03-27T11:50:23.455Z,101692.06
2023-03-27T11:53:14.795Z,101698.31
2023-03-27T11:56:00.385Z,101702.44
2023-03-27T11:58:39.012Z,101689.38
2023-03-27T12:01:17.901Z,101691.59
2023-03-27T12:04:10.959Z,101686.59
2023-03-27T12:06:51.139Z,101679.22
2023-03-27T12:09:57.029Z,101680.75
2023-03-27T12:12:33.107Z,101698.56
2023-03-27T12:15:14.730Z,101700.28
2023-03-27T12:17:47.135Z,101694.06
2023-03-27T12:20:26.814Z,101678.94
2023-03-27T12:23:01.505Z,101679.69
2023-03-27T12:26:15.700Z,101672.97
2023-03-27T12:28:54.319Z,101675.00
2023-03-27T12:31:39.743Z,101657.34
2023-03-27T12:34:19.561Z,101677.34
2023-03-27T12:36:48.245Z,101666.13
2023-03-27T12:39:20.129Z,101678.50
2023-03-27T12:41:46.954Z,101675.25
2023-03-27T12:44:17.131Z,101668.88
2023-03-27T12:46:43.864Z,101675.78
2023-03-27T12:49:13.605Z,101675.59
2023-03-27T12:52:04.219Z,101678.75
2023-03-27T12:54:31.817Z,101692.47
2023-03-27T12:57:18.286Z,101692.53
2023-03-27T12:59:47.912Z,101708.66
2023-03-27T13:02:49.860Z,101700.59
2023-03-27T13:05:31.377Z,101693.75
2023-03-27T13:08:10.208Z,101693.66
2023-03-27T13:10:58.594Z,101694.03
2023-03-27T13:13:37.919Z,101692.72
2023-03-27T13:16:16.806Z,101687.16
2023-03-27T13:18:55.503Z,101679.13
2023-03-27T13:22:18.735Z,101686.47
2023-03-27T13:25:17.174Z,101686.00
2023-03-27T13:28:08.581Z,101693.53
2023-03-27T13:31:02.078Z,101683.84
2023-03-27T13:33:31.476Z,101691.28
2023-03-27T13:35:58.104Z,101694.00
2023-03-27T13:38:53.134Z,101691.59
2023-03-27T13:41:44.565Z,101698.91
2023-03-27T13:44:34.027Z,101693.28
2023-03-27T13:47:28.615Z,101701.00
2023-03-27T13:50:16.894Z,101685.38
2023-03-27T13:53:02.375Z,101691.66
2023-03-27T13:56:04.005Z,101690.75
2023-03-27T13:58:33.352Z,101690.41
2023-03-27T14:01:25.207Z,101693.81
2023-03-27T14:04:23.746Z,101698.00
2023-03-27T14:07:08.462Z,101697.88
2023-03-27T14:09:47.345Z,101708.31
2023-03-27T14:12:20.439Z,101701.34
2023-03-27T14:15:16.302Z,101725.38
2023-03-27T14:17:55.576Z,101727.19
2023-03-27T14:20:27.313Z,101747.16
2023-03-27T14:23:12.873Z,101742.16
2023-03-27T14:25:45.566Z,101743.38
2023-03-27T14:28:31.714Z,101741.09
2023-03-27T14:31:03.198Z,101743.00
2023-03-27T14:33:29.780Z,101740.22
2023-03-27T14:36:03.785Z,101739.50
2023-03-27T14:38:34.263Z,101739.03
2023-03-27T14:41:04.337Z,101737.75
2023-03-27T14:43:31.822Z,101736.94
2023-03-27T14:46:04.890Z,101754.81
2023-03-27T14:48:37.286Z,101750.91
2023-03-27T14:51:09.768Z,101777.47
2023-03-27T14:53:43.970Z,101783.81
2023-03-27T14:56:25.010Z,101768.63
2023-03-27T14:58:55.323Z,101769.56
2023-03-27T15:01:22.185Z,101762.34
2023-03-27T15:03:51.094Z,101766.91
2023-03-27T15:06:29.221Z,101755.41
2023-03-27T15:08:59.684Z,101748.84
2023-03-27T15:11:39.028Z,101758.25
2023-03-27T15:14:12.986Z,101750.81
2023-03-27T15:16:41.281Z,101735.31
2023-03-27T15:19:23.866Z,101767.94
2023-03-27T15:22:04.012Z,101776.38
2023-03-27T15:24:39.631Z,101769.19
2023-03-27T15:27:17.102Z,101765.16
2023-03-27T15:29:49.520Z,101769.13
2023-03-27T15:32:22.027Z,101765.75
2023-03-27T15:34:56.673Z,101782.75
2023-03-27T15:37:25.569Z,101778.00
2023-03-27T15:40:14.432Z,101779.41
2023-03-27T15:42:51.580Z,101782.53
2023-03-27T15:45:34.017Z,101786.66
2023-03-27T15:48:02.825Z,101792.84
2023-03-27T15:50:29.395Z,101795.09
2023-03-27T15:52:58.092Z,101798.94
2023-03-27T15:55:32.509Z,101793.66
2023-03-27T15:58:00.212Z,101803.13
2023-03-27T16:00:28.865Z,101804.94
2023-03-27T16:02:55.782Z,101806.31
2023-03-27T16:05:22.724Z,101809.25
2023-03-27T16:07:49.296Z,101809.84
2023-03-27T16:10:32.690Z,101808.63
2023-03-27T16:13:02.959Z,101809.25
2023-03-27T16:15:30.961Z,101811.09
2023-03-27T16:18:01.237Z,101773.25
2023-03-27T16:20:28.070Z,101814.13
2023-03-27T16:22:54.463Z,101813.03
2023-03-27T16:25:20.877Z,101818.53
2023-03-27T16:27:54.968Z,101804.88
2023-03-27T16:30:24.436Z,101814.66
2023-03-27T16:32:51.098Z,101815.50
2023-03-27T16:35:18.321Z,101816.47
2023-03-27T16:37:45.931Z,101819.66
2023-03-27T16:40:12.444Z,101821.28
2023-03-27T16:42:39.020Z,101804.88
2023-03-27T16:45:06.150Z,101823.56
2023-03-27T16:47:32.672Z,101815.50
2023-03-27T16:50:10.734Z,101821.13
2023-03-27T16:52:40.367Z,101830.53
2023-03-27T16:55:08.010Z,101828.06
2023-03-27T16:57:35.118Z,101832.13
2023-03-27T17:00:01.613Z,101839.28
2023-03-27T17:02:28.808Z,101837.94
2023-03-27T17:04:55.508Z,101845.03
2023-03-27T17:07:22.104Z,101853.94
2023-03-27T17:09:48.519Z,101850.94
2023-03-27T17:12:15.030Z,101860.63
2023-03-27T17:14:42.705Z,101854.06
2023-03-27T17:17:09.235Z,101857.72
2023-03-27T17:19:35.871Z,101843.94
2023-03-27T17:22:02.300Z,101868.53
2023-03-27T17:24:28.803Z,101862.97
2023-03-27T17:26:55.331Z,101873.50
2023-03-27T17:29:21.908Z,101880.84
2023-03-27T17:31:48.486Z,101881.22
2023-03-27T17:34:15.312Z,101888.09
2023-03-27T17:36:47.472Z,101886.78
2023-03-27T17:39:18.929Z,101894.56
2023-03-27T17:41:45.519Z,101892.25
2023-03-27T17:44:12.721Z,101901.13
2023-03-27T17:46:39.231Z,101900.63
2023-03-27T17:49:05.784Z,101912.06
2023-03-27T17:51:32.322Z,101912.91
2023-03-27T17:53:58.872Z,101909.72
2023-03-27T17:56:25.459Z,101913.88
2023-03-27T17:58:51.892Z,101915.97
2023-03-27T18:01:21.016Z,101920.25
2023-03-27T18:03:47.992Z,101934.16
2023-03-27T18:06:17.419Z,101928.34
2023-03-27T18:08:44.811Z,101924.22
2023-03-27T18:11:13.625Z,101931.16
2023-03-27T18:13:40.289Z,101938.13
2023-03-27T18:16:10.406Z,101944.38
2023-03-27T18:18:38.937Z,101939.50
2023-03-27T18:21:06.259Z,101950.66
2023-03-27T18:23:34.781Z,101948.44
2023-03-27T18:26:08.366Z,101954.41
2023-03-27T18:28:35.790Z,101947.53
2023-03-27T18:31:05.200Z,101954.47
2023-03-27T18:33:31.847Z,101953.00
2023-03-27T18:35:58.651Z,101959.00
2023-03-27T18:38:27.419Z,101957.22
2023-03-27T18:40:59.773Z,101958.28
2023-03-27T18:43:26.612Z,101963.59
2023-03-27T18:45:58.284Z,101962.03
2023-03-27T18:48:26.222Z,101954.53
2023-03-27T18:50:57.824Z,101970.72
2023-03-27T18:53:24.476Z,101973.28
2023-03-27T18:55:52.159Z,101972.41
2023-03-27T18:58:19.408Z,101984.53
2023-03-27T19:00:46.032Z,101987.31
2023-03-27T19:03:15.553Z,101987.38
2023-03-27T19:05:42.143Z,101989.25
2023-03-27T19:08:08.656Z,101981.69
2023-03-27T19:10:35.806Z,101985.22
2023-03-27T19:13:02.640Z,101989.72
2023-03-27T19:15:29.528Z,101989.88
2023-03-27T19:17:56.468Z,101988.19
2023-03-27T19:20:23.156Z,101999.50
2023-03-27T19:22:49.895Z,101997.97
2023-03-27T19:25:16.732Z,102005.13
2023-03-27T19:27:43.713Z,102002.94
2023-03-27T19:30:11.796Z,102003.81
2023-03-27T19:32:39.012Z,102003.97
2023-03-27T19:35:06.153Z,101998.78
2023-03-27T19:37:33.008Z,102000.56
2023-03-27T19:39:59.770Z,101999.88
2023-03-27T19:42:28.397Z,101986.31
2023-03-27T19:44:55.502Z,102010.34
2023-03-27T19:47:22.392Z,102002.72
2023-03-27T19:49:48.957Z,102004.44
2023-03-27T19:52:19.768Z,101993.38
2023-03-27T19:54:46.735Z,102010.47
2023-03-27T19:57:13.726Z,102011.41
2023-03-27T19:59:40.349Z,102005.59
2023-03-27T20:02:06.922Z,102019.25
2023-03-27T20:04:33.388Z,102014.16
2023-03-27T20:07:01.689Z,102026.34
2023-03-27T20:09:28.336Z,102022.19
2023-03-27T20:11:55.080Z,102023.09
2023-03-27T20:14:21.574Z,102022.28
2023-03-27T20:16:48.232Z,102025.03
2023-03-27T20:19:16.701Z,102015.63
2023-03-27T20:21:43.512Z,102026.88
2023-03-27T20:24:12.255Z,102033.78
2023-03-27T20:26:40.291Z,102031.19
2023-03-27T20:29:16.221Z,102020.25
2023-03-27T20:31:43.097Z,102030.47
2023-03-27T20:34:10.243Z,102036.56
2023-03-27T20:36:38.973Z,102036.72
2023-03-27T20:39:07.518Z,102040.19
2023-03-27T20:41:38.700Z,102041.97
2023-03-27T20:44:17.932Z,102046.47
2023-03-27T20:46:47.364Z,102035.38
2023-03-27T20:49:37.568Z,102045.78
2023-03-27T20:52:08.749Z,102030.31
2023-03-27T20:54:35.301Z,102039.91
2023-03-27T20:57:02.732Z,102035.63
2023-03-27T20:59:30.620Z,102042.59
2023-03-27T21:01:59.354Z,102028.91
2023-03-27T21:04:28.002Z,102046.94
2023-03-27T21:06:55.023Z,102034.94
2023-03-27T21:09:22.479Z,102031.59
2023-03-27T21:11:49.085Z,102046.16
2023-03-27T21:14:15.903Z,102049.59
2023-03-27T21:16:43.066Z,102063.47
2023-03-27T21:19:10.687Z,102059.22
2023-03-27T21:21:37.363Z,102058.53
2023-03-27T21:24:04.015Z,102068.06
2023-03-27T21:26:30.559Z,102044.28
2023-03-27T21:28:56.997Z,102047.69
2023-03-27T21:31:23.526Z,102060.47
2023-03-27T21:33:50.020Z,102057.97
2023-03-27T21:36:16.594Z,102063.16
2023-03-27T21:38:43.221Z,102057.13
2023-03-27T21:41:13.478Z,102064.09
2023-03-27T21:43:39.937Z,102064.16
2023-03-27T21:46:06.878Z,102069.34
2023-03-27T21:48:33.485Z,102073.72
2023-03-27T21:51:05.302Z,102071.22
2023-03-27T21:53:31.775Z,102074.72
2023-03-27T21:55:58.763Z,102068.91
2023-03-27T21:58:25.739Z,102071.44
2023-03-27T22:00:54.898Z,102076.66
2023-03-27T22:03:22.372Z,102072.59
2023-03-27T22:06:01.157Z,102069.25
2023-03-27T22:08:39.143Z,102083.78
2023-03-27T22:11:05.985Z,102077.84
2023-03-27T22:13:36.068Z,102080.53
2023-03-27T22:16:14.498Z,102082.22
2023-03-27T22:18:41.414Z,102090.03
2023-03-27T22:21:26.296Z,102088.38
2023-03-27T22:23:54.865Z,102099.59
2023-03-27T22:26:24.681Z,102081.72
2023-03-27T22:28:54.189Z,102091.94
2023-03-27T22:31:21.429Z,102101.47
2023-03-27T22:33:48.583Z,102094.63
2023-03-27T22:36:15.743Z,102089.56
2023-03-27T22:38:43.185Z,102100.81
2023-03-27T22:41:12.112Z,102099.00
2023-03-27T22:43:39.310Z,102105.94
2023-03-27T22:46:14.237Z,102115.38
2023-03-27T22:48:41.094Z,102116.28
2023-03-27T22:51:08.558Z,102112.06
2023-03-27T22:53:35.765Z,102114.56
2023-03-27T22:56:03.274Z,102126.59
2023-03-27T22:58:31.289Z,102126.59
2023-03-27T23:00:58.132Z,102119.91
2023-03-27T23:03:26.656Z,102131.84
2023-03-27T23:05:54.518Z,102124.16
2023-03-27T23:08:24.099Z,102127.59
2023-03-27T23:10:56.101Z,102130.22
2023-03-27T23:13:23.313Z,102135.41
2023-03-27T23:15:51.759Z,102138.06
2023-03-27T23:18:23.721Z,102113.44
2023-03-27T23:21:01.895Z,102143.22
2023-03-27T23:23:30.201Z,102139.81
2023-03-27T23:26:00.050Z,102141.59
2023-03-27T23:28:30.412Z,102145.03
2023-03-27T23:31:00.213Z,102144.22
2023-03-27T23:33:28.049Z,102128.09
2023-03-27T23:36:04.727Z,102147.75
2023-03-27T23:38:31.591Z,102144.31
2023-03-27T23:40:59.580Z,102142.63
2023-03-27T23:43:27.644Z,102143.56
2023-03-27T23:45:55.828Z,102153.88
2023-03-27T23:48:23.321Z,102141.97
2023-03-27T23:50:49.995Z,102136.88
2023-03-27T23:53:16.978Z,102134.31
2023-03-27T23:55:43.482Z,102148.84
2023-03-27T23:58:10.129Z,102154.06
